createdAt,value
2018-01-11T00:01:48.731Z,34.67
2018-01-11T00:04:16.359Z,30.93
2018-01-11T00:06:43.986Z,33.20
2018-01-11T00:09:11.575Z,33.10
2018-01-11T00:11:39.194Z,32.13
2018-01-11T00:14:06.785Z,34.80
2018-01-11T00:16:34.398Z,29.60
2018-01-11T00:19:01.987Z,31.17
2018-01-11T00:21:29.566Z,31.40
2018-01-11T00:23:57.146Z,30.17
2018-01-11T00:26:24.735Z,30.40
2018-01-11T00:28:52.323Z,28.93
2018-01-11T00:31:19.907Z,31.13
2018-01-11T00:33:47.526Z,31.40
2018-01-11T00:36:15.111Z,29.17
2018-01-11T00:38:42.731Z,31.50
2018-01-11T00:41:10.313Z,31.07
2018-01-11T00:43:37.935Z,33.00
2018-01-11T00:46:05.528Z,31.17
2018-01-11T00:48:33.149Z,34.33
2018-01-11T00:51:00.827Z,31.13
2018-01-11T00:53:28.442Z,31.97
2018-01-11T00:55:56.023Z,33.37
2018-01-11T00:58:23.607Z,31.27
2018-01-11T01:00:51.275Z,31.83
2018-01-11T01:03:18.859Z,30.80
2018-01-11T01:05:46.478Z,28.90
2018-01-11T01:08:14.066Z,32.13
2018-01-11T01:10:41.823Z,34.50
2018-01-11T01:13:09.412Z,31.97
2018-01-11T01:15:36.998Z,35.40
2018-01-11T01:18:04.582Z,35.67
2018-01-11T01:20:32.166Z,34.70
2018-01-11T01:22:59.755Z,35.57
2018-01-11T01:25:27.395Z,36.80
2018-01-11T01:27:54.981Z,33.20
2018-01-11T01:30:22.564Z,38.13
2018-01-11T01:32:50.155Z,39.60
2018-01-11T01:35:17.786Z,37.42
2018-01-11T01:37:45.371Z,36.77
2018-01-11T01:40:13.099Z,33.87
2018-01-11T01:42:40.734Z,37.23
2018-01-11T01:45:08.391Z,36.90
2018-01-11T01:47:35.986Z,37.57
2018-01-11T01:50:03.579Z,38.70
2018-01-11T01:52:31.171Z,40.37
2018-01-11T01:54:58.759Z,36.30
2018-01-11T01:57:26.349Z,34.20
2018-01-11T01:59:53.931Z,35.43
2018-01-11T02:02:21.515Z,35.83
2018-01-11T02:04:49.103Z,37.67
2018-01-11T02:07:16.688Z,33.60
2018-01-11T02:09:44.270Z,35.97
2018-01-11T02:12:11.887Z,37.57
2018-01-11T02:14:39.527Z,37.67
2018-01-11T02:17:07.114Z,37.20
2018-01-11T02:19:34.699Z,34.40
2018-01-11T02:22:02.342Z,38.27
2018-01-11T02:24:29.959Z,36.13
2018-01-11T02:26:57.540Z,35.00
2018-01-11T02:29:25.204Z,36.27
2018-01-11T02:31:52.781Z,35.70
2018-01-11T02:34:20.365Z,38.73
2018-01-11T02:36:48.015Z,39.53
2018-01-11T02:39:15.855Z,38.80
2018-01-11T02:41:43.514Z,40.53
2018-01-11T02:44:11.207Z,39.20
2018-01-11T02:46:38.835Z,39.17
2018-01-11T02:49:06.691Z,41.27
2018-01-11T02:51:34.366Z,38.87
2018-01-11T02:54:02.083Z,45.40
2018-01-11T02:56:29.667Z,38.40
2018-01-11T02:58:57.357Z,39.27
2018-01-11T03:01:25.019Z,39.43
2018-01-11T03:03:52.609Z,38.73
2018-01-11T03:06:20.200Z,44.67
2018-01-11T03:08:47.823Z,42.67
2018-01-11T03:11:15.418Z,43.50
2018-01-11T03:13:43.035Z,41.27
2018-01-11T03:16:10.620Z,42.73
2018-01-11T03:18:38.239Z,39.87
2018-01-11T03:21:05.827Z,41.90
2018-01-11T03:23:33.410Z,40.40
2018-01-11T03:26:01.044Z,38.60
2018-01-11T03:28:28.631Z,41.23
2018-01-11T03:30:56.209Z,41.90
2018-01-11T03:33:23.808Z,41.40
2018-01-11T03:35:51.590Z,42.30
2018-01-11T03:38:19.170Z,39.20
2018-01-11T03:40:46.757Z,41.27
2018-01-11T03:43:14.348Z,41.10
2018-01-11T03:45:42.031Z,42.93
2018-01-11T03:48:09.664Z,41.33
2018-01-11T03:50:37.363Z,44.50
2018-01-11T03:53:04.950Z,42.23
2018-01-11T03:55:32.530Z,44.47
2018-01-11T03:58:00.155Z,42.30
2018-01-11T04:00:27.807Z,42.67
2018-01-11T04:02:55.403Z,42.20
2018-01-11T04:05:22.998Z,42.90
2018-01-11T04:07:50.589Z,42.80
2018-01-11T04:10:18.220Z,44.20
2018-01-11T04:12:45.799Z,41.20
2018-01-11T04:15:13.480Z,44.07
2018-01-11T04:17:41.066Z,46.60
2018-01-11T04:20:08.690Z,43.20
2018-01-11T04:22:36.314Z,43.80
2018-01-11T04:25:03.939Z,41.47
2018-01-11T04:27:31.571Z,42.37
2018-01-11T04:29:59.160Z,47.73
2018-01-11T04:32:26.746Z,45.07
2018-01-11T04:34:54.371Z,45.13
2018-01-11T04:37:21.959Z,46.13
2018-01-11T04:39:49.542Z,48.60
2018-01-11T04:42:17.135Z,43.57
2018-01-11T04:44:44.724Z,46.37
2018-01-11T04:47:12.368Z,41.90
2018-01-11T04:49:39.990Z,41.97
2018-01-11T04:52:07.607Z,45.07
2018-01-11T04:54:35.263Z,45.33
2018-01-11T04:57:02.939Z,48.37
2018-01-11T04:59:30.568Z,50.43
2018-01-11T05:01:58.261Z,51.83
2018-01-11T05:04:25.883Z,51.23
2018-01-11T05:06:53.471Z,52.03
2018-01-11T05:09:21.147Z,57.47
2018-01-11T05:11:48.774Z,52.00
2018-01-11T05:14:16.365Z,51.10
2018-01-11T05:16:43.954Z,46.67
2018-01-11T05:19:11.543Z,45.57
2018-01-11T05:21:39.132Z,52.90
2018-01-11T05:24:06.727Z,49.80
2018-01-11T05:26:34.362Z,49.80
2018-01-11T05:29:01.952Z,46.47
2018-01-11T05:31:29.572Z,49.23
2018-01-11T05:33:57.310Z,46.40
2018-01-11T05:36:24.898Z,46.37
2018-01-11T05:38:52.518Z,48.63
2018-01-11T05:41:20.146Z,48.10
2018-01-11T05:43:47.771Z,48.27
2018-01-11T05:46:15.363Z,50.83
2018-01-11T05:48:42.987Z,49.13
2018-01-11T05:51:10.619Z,50.07
2018-01-11T05:53:38.211Z,49.43
2018-01-11T05:56:05.804Z,51.67
2018-01-11T05:58:33.394Z,50.23
2018-01-11T06:01:00.983Z,49.50
2018-01-11T06:03:28.571Z,44.70
2018-01-11T06:05:56.163Z,47.20
2018-01-11T06:08:23.755Z,51.80
2018-01-11T06:10:51.343Z,48.03
2018-01-11T06:13:18.972Z,45.17
2018-01-11T06:15:46.564Z,45.67
2018-01-11T06:18:14.196Z,46.83
2018-01-11T06:20:41.783Z,45.90
2018-01-11T06:23:09.432Z,43.87
2018-01-11T06:25:37.031Z,46.20
2018-01-11T06:28:04.662Z,48.33
2018-01-11T06:30:32.255Z,48.00
2018-01-11T06:32:59.887Z,45.20
2018-01-11T06:35:27.510Z,49.80
2018-01-11T06:37:55.098Z,49.20
2018-01-11T06:40:22.693Z,45.80
2018-01-11T06:42:50.322Z,47.70
2018-01-11T06:45:17.915Z,46.50
2018-01-11T06:47:45.508Z,46.43
2018-01-11T06:50:13.171Z,46.07
2018-01-11T06:52:40.835Z,48.73
2018-01-11T06:55:08.462Z,44.90
2018-01-11T06:57:36.058Z,47.63
2018-01-11T07:00:03.687Z,44.20
2018-01-11T07:02:31.271Z,42.60
2018-01-11T07:04:58.855Z,48.70
2018-01-11T07:07:26.558Z,45.83
2018-01-11T07:09:54.180Z,46.90
2018-01-11T07:12:21.815Z,42.37
2018-01-11T07:14:49.461Z,49.10
2018-01-11T07:17:17.108Z,46.80
2018-01-11T07:19:44.708Z,41.73
2018-01-11T07:22:12.429Z,47.30
2018-01-11T07:24:40.051Z,43.27
2018-01-11T07:27:08.252Z,43.13
2018-01-11T07:29:35.881Z,48.53
2018-01-11T07:32:03.508Z,42.97
2018-01-11T07:34:31.098Z,46.00
2018-01-11T07:36:58.714Z,42.23
2018-01-11T07:39:26.352Z,46.60
2018-01-11T07:41:53.946Z,43.70
2018-01-11T07:44:21.535Z,44.77
2018-01-11T07:46:49.115Z,44.10
2018-01-11T07:49:16.706Z,48.23
2018-01-11T07:51:44.441Z,47.67
2018-01-11T07:54:12.107Z,44.77
2018-01-11T07:56:39.708Z,47.53
2018-01-11T07:59:07.272Z,43.37
2018-01-11T08:01:34.867Z,41.83
2018-01-11T08:04:02.431Z,42.27
2018-01-11T08:06:29.987Z,43.60
2018-01-11T08:08:57.688Z,46.37
2018-01-11T08:11:25.277Z,44.53
2018-01-11T08:13:52.838Z,44.10
2018-01-11T08:16:20.439Z,46.30
2018-01-11T08:18:47.997Z,46.33
2018-01-11T08:21:15.595Z,50.33
2018-01-11T08:23:43.184Z,49.40
2018-01-11T08:26:10.738Z,47.50
2018-01-11T08:28:38.336Z,42.90
2018-01-11T08:31:05.894Z,47.30
2018-01-11T08:33:33.448Z,41.27
2018-01-11T08:36:00.995Z,43.37
2018-01-11T08:38:28.552Z,42.03
2018-01-11T08:40:56.114Z,40.77
2018-01-11T08:43:23.671Z,44.10
2018-01-11T08:45:51.262Z,40.90
2018-01-11T08:48:18.811Z,42.60
2018-01-11T08:50:46.406Z,39.97
2018-01-11T08:53:13.951Z,36.70
2018-01-11T08:55:41.503Z,36.60
2018-01-11T08:58:09.052Z,38.37
2018-01-11T09:00:36.599Z,34.60
2018-01-11T09:03:04.163Z,35.20
2018-01-11T09:05:31.726Z,35.60
2018-01-11T09:07:59.283Z,35.23
2018-01-11T09:10:26.968Z,33.27
2018-01-11T09:12:54.634Z,36.80
2018-01-11T09:15:22.184Z,36.73
2018-01-11T09:17:49.726Z,39.00
2018-01-11T09:20:17.293Z,36.77
2018-01-11T09:22:44.879Z,35.40
2018-01-11T09:25:12.440Z,37.20
2018-01-11T09:27:50.794Z,34.90
2018-01-11T09:30:19.510Z,37.47
2018-01-11T09:32:47.078Z,35.37
2018-01-11T09:35:14.639Z,36.03
2018-01-11T09:37:42.238Z,36.97
2018-01-11T09:40:09.794Z,32.40
2018-01-11T09:42:37.371Z,35.23
2018-01-11T09:45:04.956Z,37.77
2018-01-11T09:47:32.559Z,37.67
2018-01-11T09:50:00.123Z,38.17
2018-01-11T09:52:27.667Z,36.47
2018-01-11T09:54:55.222Z,34.90
2018-01-11T09:57:22.773Z,37.00
2018-01-11T09:59:50.355Z,38.87
2018-01-11T10:02:17.898Z,35.80
2018-01-11T10:04:45.454Z,36.10
2018-01-11T10:07:13.020Z,36.43
2018-01-11T10:09:40.577Z,34.37
2018-01-11T10:12:08.171Z,35.90
2018-01-11T10:14:35.754Z,37.20
2018-01-11T10:17:03.309Z,34.00
2018-01-11T10:19:30.896Z,33.50
2018-01-11T10:21:58.480Z,33.43
2018-01-11T10:24:26.033Z,33.80
2018-01-11T10:26:53.619Z,34.50
2018-01-11T10:29:21.198Z,30.77
2018-01-11T10:31:48.746Z,33.40
2018-01-11T10:34:16.319Z,34.53
2018-01-11T10:36:43.872Z,31.20
2018-01-11T10:39:11.427Z,33.57
2018-01-11T10:41:38.979Z,33.97
2018-01-11T10:44:06.666Z,36.45
2018-01-11T10:46:34.293Z,31.50
2018-01-11T10:49:01.888Z,30.43
2018-01-11T10:51:29.439Z,31.40
2018-01-11T10:53:57.031Z,29.37
2018-01-11T10:56:24.648Z,27.80
2018-01-11T10:58:52.202Z,30.00
2018-01-11T11:01:25.439Z,30.77
2018-01-11T11:03:53.039Z,32.33
2018-01-11T11:06:20.591Z,34.33
2018-01-11T11:08:48.145Z,31.30
2018-01-11T11:11:15.742Z,31.17
2018-01-11T11:13:43.304Z,27.10
2018-01-11T11:16:10.894Z,25.33
2018-01-11T11:18:38.484Z,29.13
2018-01-11T11:21:06.042Z,28.83
2018-01-11T11:23:33.646Z,29.80
2018-01-11T11:26:01.201Z,29.00
2018-01-11T11:28:28.794Z,26.90
2018-01-11T11:30:56.351Z,28.67
2018-01-11T11:33:23.910Z,29.50
2018-01-11T11:35:51.499Z,26.20
2018-01-11T11:38:19.099Z,27.63
2018-01-11T11:40:46.702Z,28.10
2018-01-11T11:43:14.308Z,28.90
2018-01-11T11:45:41.947Z,27.30
2018-01-11T11:48:09.605Z,27.43
2018-01-11T11:50:37.183Z,27.53
2018-01-11T11:53:05.398Z,27.50
2018-01-11T11:55:33.445Z,25.43
2018-01-11T11:58:01.060Z,25.43
2018-01-11T12:00:28.648Z,26.63
2018-01-11T12:02:56.207Z,26.33
2018-01-11T12:05:23.853Z,26.83
2018-01-11T12:07:51.405Z,28.33
2018-01-11T12:10:19.026Z,27.30
2018-01-11T12:12:46.608Z,27.53
2018-01-11T12:15:14.167Z,25.70
2018-01-11T12:17:41.748Z,26.27
2018-01-11T12:20:09.409Z,26.70
2018-01-11T12:22:36.958Z,23.20
2018-01-11T12:25:04.540Z,24.37
2018-01-11T12:27:32.094Z,27.37
2018-01-11T12:29:59.687Z,26.00
2018-01-11T12:32:27.239Z,25.47
2018-01-11T12:34:54.831Z,24.50
2018-01-11T12:37:22.388Z,26.50
2018-01-11T12:39:50.000Z,29.33
2018-01-11T12:42:17.663Z,28.60
2018-01-11T12:44:45.319Z,26.83
2018-01-11T12:47:12.874Z,25.30
2018-01-11T12:49:40.424Z,26.67
2018-01-11T12:52:07.982Z,23.50
2018-01-11T12:54:35.566Z,21.60
2018-01-11T12:57:03.152Z,23.50
2018-01-11T12:59:30.713Z,25.87
2018-01-11T13:01:58.304Z,23.90
2018-01-11T13:04:25.857Z,23.93
2018-01-11T13:06:53.484Z,23.30
2018-01-11T13:09:21.764Z,24.93
2018-01-11T13:11:49.411Z,24.10
2018-01-11T13:14:17.074Z,26.90
2018-01-11T13:16:44.631Z,25.93
2018-01-11T13:19:12.185Z,26.03
2018-01-11T13:21:39.762Z,24.57
2018-01-11T13:24:07.314Z,25.07
2018-01-11T13:26:34.876Z,27.13
2018-01-11T13:29:02.443Z,25.93
2018-01-11T13:31:30.000Z,25.30
2018-01-11T13:33:57.599Z,25.70
2018-01-11T13:36:25.224Z,27.70
2018-01-11T13:38:52.775Z,27.23
2018-01-11T13:41:20.377Z,25.50
2018-01-11T13:43:47.923Z,24.77
2018-01-11T13:46:15.486Z,27.50
2018-01-11T13:48:43.164Z,27.50
2018-01-11T13:51:10.751Z,26.80
2018-01-11T13:53:38.303Z,28.47
2018-01-11T13:56:05.895Z,27.80
2018-01-11T13:58:33.507Z,31.00
2018-01-11T14:01:01.095Z,32.10
2018-01-11T14:03:28.735Z,28.40
2018-01-11T14:05:56.328Z,29.00
2018-01-11T14:08:23.955Z,31.65
2018-01-11T14:10:51.507Z,31.50
2018-01-11T14:13:19.184Z,28.53
2018-01-11T14:15:46.743Z,28.47
2018-01-11T14:18:14.508Z,27.00
2018-01-11T14:20:42.068Z,25.17
2018-01-11T14:23:09.658Z,25.80
2018-01-11T14:25:37.210Z,25.70
2018-01-11T14:28:04.771Z,26.30
2018-01-11T14:30:32.323Z,25.37
2018-01-11T14:32:59.972Z,24.57
2018-01-11T14:35:27.504Z,23.97
2018-01-11T14:37:55.089Z,23.73
2018-01-11T14:42:56.560Z,25.30
2018-01-11T14:45:24.222Z,25.30
2018-01-11T14:47:51.854Z,24.67
2018-01-11T14:50:19.403Z,25.43
2018-01-11T14:52:46.955Z,26.20
2018-01-11T14:55:14.503Z,24.57
2018-01-11T14:57:42.136Z,22.43
2018-01-11T15:00:09.762Z,21.93
2018-01-11T15:02:37.322Z,23.30
2018-01-11T15:05:04.911Z,23.97
2018-01-11T15:07:32.459Z,24.27
2018-01-11T15:10:00.051Z,24.20
2018-01-11T15:12:28.467Z,23.87
2018-01-11T15:14:56.059Z,27.80
2018-01-11T15:17:23.611Z,27.30
2018-01-11T15:19:51.210Z,24.97
2018-01-11T15:22:18.767Z,26.17
2018-01-11T15:24:46.319Z,25.43
2018-01-11T15:27:13.887Z,24.47
2018-01-11T15:29:41.438Z,25.37
2018-01-11T15:32:08.987Z,25.87
2018-01-11T15:34:36.542Z,25.73
2018-01-11T15:37:04.095Z,24.70
2018-01-11T15:39:31.682Z,25.50
2018-01-11T15:41:59.240Z,25.20
2018-01-11T15:44:26.786Z,23.93
2018-01-11T15:46:54.336Z,24.83
2018-01-11T15:49:21.886Z,23.97
2018-01-11T15:51:49.435Z,23.20
2018-01-11T15:54:16.991Z,24.23
2018-01-11T15:56:44.547Z,24.17
2018-01-11T15:59:12.167Z,25.40
2018-01-11T16:01:39.830Z,24.30
2018-01-11T16:04:07.394Z,24.13
2018-01-11T16:06:35.055Z,23.47
2018-01-11T16:09:02.660Z,26.10
2018-01-11T16:11:30.212Z,24.63
2018-01-11T16:13:57.863Z,25.47
2018-01-11T16:16:25.451Z,23.83
2018-01-11T16:18:53.033Z,24.90
2018-01-11T16:21:20.619Z,23.17
2018-01-11T16:23:48.312Z,23.03
2018-01-11T16:26:15.971Z,25.97
2018-01-11T16:28:43.563Z,23.40
2018-01-11T16:31:11.145Z,24.73
2018-01-11T16:33:38.722Z,26.20
2018-01-11T16:36:06.324Z,28.00
2018-01-11T16:38:33.907Z,28.27
2018-01-11T16:41:01.493Z,26.43
2018-01-11T16:43:29.107Z,27.20
2018-01-11T16:45:56.727Z,26.30
2018-01-11T16:48:24.337Z,26.50
2018-01-11T16:50:51.923Z,24.53
2018-01-11T16:53:19.509Z,24.80
2018-01-11T16:55:47.087Z,26.30
2018-01-11T16:58:14.708Z,27.23
2018-01-11T17:00:42.295Z,23.67
2018-01-11T17:03:09.870Z,26.10
2018-01-11T17:05:37.450Z,27.30
2018-01-11T17:08:05.044Z,29.50
2018-01-11T17:10:32.623Z,28.00
2018-01-11T17:13:00.247Z,27.43
2018-01-11T17:15:28.647Z,30.03
2018-01-11T17:17:56.319Z,30.47
2018-01-11T17:20:23.908Z,29.97
2018-01-11T17:22:51.508Z,30.70
2018-01-11T17:25:19.086Z,30.97
2018-01-11T17:27:46.772Z,28.87
2018-01-11T17:30:14.358Z,28.33
2018-01-11T17:32:41.968Z,29.13
2018-01-11T17:35:09.546Z,30.33
2018-01-11T17:37:37.127Z,27.43
2018-01-11T17:40:04.748Z,32.00
2018-01-11T17:42:32.337Z,30.97
2018-01-11T17:44:59.923Z,31.30
2018-01-11T17:47:27.507Z,33.40
2018-01-11T17:49:55.091Z,34.07
2018-01-11T17:52:22.809Z,33.20
2018-01-11T17:54:50.443Z,35.87
2018-01-11T17:57:18.109Z,33.23
2018-01-11T17:59:45.690Z,33.53
2018-01-11T18:02:13.270Z,30.27
2018-01-11T18:04:40.960Z,30.60
2018-01-11T18:07:08.541Z,32.67
2018-01-11T18:09:36.654Z,34.60
2018-01-11T18:12:04.262Z,34.30
2018-01-11T18:14:31.925Z,34.00
2018-01-11T18:16:59.555Z,35.90
2018-01-11T18:19:27.239Z,32.20
2018-01-11T18:21:54.942Z,36.70
2018-01-11T18:24:22.607Z,35.23
2018-01-11T18:26:50.311Z,37.63
2018-01-11T18:29:17.999Z,35.17
2018-01-11T18:31:45.633Z,39.03
2018-01-11T18:34:13.298Z,39.13
2018-01-11T18:36:40.918Z,37.03
2018-01-11T18:39:08.551Z,37.03
2018-01-11T18:41:36.144Z,33.37
2018-01-11T18:44:03.722Z,34.20
2018-01-11T18:46:31.330Z,31.40
2018-01-11T18:48:58.996Z,35.20
2018-01-11T18:51:26.577Z,32.80
2018-01-11T18:53:54.166Z,33.27
2018-01-11T18:56:21.779Z,34.93
2018-01-11T18:58:49.361Z,37.10
2018-01-11T19:01:17.005Z,35.30
2018-01-11T19:03:44.583Z,35.37
2018-01-11T19:06:12.163Z,36.20
2018-01-11T19:08:39.787Z,33.23
2018-01-11T19:11:07.371Z,36.00
2018-01-11T19:13:34.952Z,36.00
2018-01-11T19:16:02.737Z,33.87
2018-01-11T19:18:30.355Z,32.17
2018-01-11T19:20:57.930Z,34.80
2018-01-11T19:23:25.509Z,34.20
2018-01-11T19:25:53.090Z,34.17
2018-01-11T19:28:20.715Z,31.40
2018-01-11T19:30:48.299Z,34.13
2018-01-11T19:33:15.980Z,32.97
2018-01-11T19:35:43.670Z,30.47
2018-01-11T19:38:11.256Z,31.87
2018-01-11T19:40:38.899Z,33.80
2018-01-11T19:43:06.481Z,29.67
2018-01-11T19:45:34.067Z,31.57
2018-01-11T19:48:01.671Z,31.57
2018-01-11T19:50:29.342Z,31.37
2018-01-11T19:52:56.929Z,33.47
2018-01-11T19:55:24.551Z,33.87
2018-01-11T19:57:52.227Z,31.97
2018-01-11T20:00:21.295Z,34.50
2018-01-11T20:02:48.991Z,36.63
2018-01-11T20:05:16.620Z,35.93
2018-01-11T20:07:44.204Z,35.60
2018-01-11T20:10:11.791Z,34.30
2018-01-11T20:12:39.408Z,35.50
2018-01-11T20:15:07.104Z,36.80
2018-01-11T20:17:34.737Z,36.83
2018-01-11T20:20:02.436Z,39.90
2018-01-11T20:22:33.193Z,40.30
2018-01-11T20:25:00.784Z,36.93
2018-01-11T20:27:28.407Z,39.03
2018-01-11T20:29:56.255Z,39.77
2018-01-11T20:32:23.844Z,35.13
2018-01-11T20:34:51.431Z,40.10
2018-01-11T20:37:19.041Z,39.17
2018-01-11T20:39:46.699Z,34.50
2018-01-11T20:42:14.323Z,36.70
2018-01-11T20:44:41.967Z,36.27
2018-01-11T20:47:09.550Z,37.50
2018-01-11T20:49:37.176Z,37.00
2018-01-11T20:52:04.850Z,38.43
2018-01-11T20:54:32.610Z,36.00
2018-01-11T20:57:00.187Z,39.10
2018-01-11T20:59:27.822Z,43.90
2018-01-11T21:01:55.415Z,40.47
2018-01-11T21:04:23.026Z,38.70
2018-01-11T21:06:50.695Z,39.27
2018-01-11T21:09:18.323Z,44.30
2018-01-11T21:11:45.906Z,40.37
2018-01-11T21:14:13.611Z,43.80
2018-01-11T21:16:41.276Z,41.47
2018-01-11T21:19:08.863Z,40.80
2018-01-11T21:21:36.451Z,40.87
2018-01-11T21:24:04.035Z,40.30
2018-01-11T21:26:31.686Z,43.47
2018-01-11T21:28:59.267Z,41.43
2018-01-11T21:31:26.847Z,44.43
2018-01-11T21:33:54.472Z,43.60
2018-01-11T21:36:22.067Z,46.57
2018-01-11T21:38:49.700Z,44.90
2018-01-11T21:41:17.359Z,41.60
2018-01-11T21:43:44.950Z,49.00
2018-01-11T21:46:12.586Z,44.50
2018-01-11T21:48:40.245Z,43.00
2018-01-11T21:51:07.856Z,43.77
2018-01-11T21:53:35.440Z,43.30
2018-01-11T21:56:03.130Z,41.90
2018-01-11T21:58:30.828Z,44.83
2018-01-11T22:00:58.463Z,43.37
2018-01-11T22:03:26.108Z,45.77
2018-01-11T22:05:53.699Z,47.07
2018-01-11T22:08:21.292Z,49.70
2018-01-11T22:10:49.827Z,48.83
2018-01-11T22:13:17.418Z,46.60
2018-01-11T22:15:44.999Z,50.17
2018-01-11T22:18:12.582Z,50.00
2018-01-11T22:20:40.273Z,47.70
2018-01-11T22:23:07.867Z,46.90
2018-01-11T22:25:35.446Z,42.67
2018-01-11T22:28:03.091Z,44.00
2018-01-11T22:30:30.680Z,51.47
2018-01-11T22:32:58.286Z,50.50
2018-01-11T22:35:25.870Z,55.27
2018-01-11T22:37:53.451Z,50.67
2018-01-11T22:40:21.032Z,52.90
2018-01-11T22:42:48.631Z,49.30
2018-01-11T22:45:16.212Z,46.10
2018-01-11T22:47:43.798Z,49.00
2018-01-11T22:50:11.512Z,54.47
2018-01-11T22:52:39.091Z,53.17
2018-01-11T22:55:06.677Z,52.13
2018-01-11T22:57:35.199Z,49.30
2018-01-11T23:00:02.779Z,52.13
2018-01-11T23:02:30.367Z,52.80
2018-01-11T23:04:58.001Z,54.63
2018-01-11T23:07:25.667Z,48.47
2018-01-11T23:09:53.254Z,50.27
2018-01-11T23:12:20.854Z,50.67
2018-01-11T23:14:48.432Z,54.17
2018-01-11T23:17:16.054Z,49.90
2018-01-11T23:19:43.634Z,50.37
2018-01-11T23:22:11.219Z,55.13
2018-01-11T23:24:38.867Z,52.80
2018-01-11T23:27:06.456Z,54.60
2018-01-11T23:29:34.042Z,52.00
2018-01-11T23:32:01.684Z,59.07
2018-01-11T23:34:29.367Z,48.53
2018-01-11T23:36:56.943Z,52.40
2018-01-11T23:39:24.530Z,50.73
2018-01-11T23:41:52.112Z,51.83
2018-01-11T23:44:19.806Z,54.80
2018-01-11T23:46:47.392Z,53.33
2018-01-11T23:49:15.027Z,53.87
2018-01-11T23:51:42.611Z,52.83
2018-01-11T23:54:10.238Z,57.30
2018-01-11T23:56:37.823Z,57.80
2018-01-11T23:59:05.412Z,57.47
